sensor_id;sensor_type;location;lat;lon;timestamp;pressure;altitude;pressure_sealevel;temperature;humidity
80922;BME280;70374;46.156;18.614;2023-06-22T00:01:16;99360.41;;;22.51;82.92
80922;BME280;70374;46.156;18.614;2023-06-22T00:04:19;99352.50;;;22.49;82.87
80922;BME280;70374;46.156;18.614;2023-06-22T00:07:22;99345.22;;;22.41;83.29
80922;BME280;70374;46.156;18.614;2023-06-22T00:10:24;99346.41;;;22.45;83.12
80922;BME280;70374;46.156;18.614;2023-06-22T00:13:27;99340.75;;;22.45;82.87
80922;BME280;70374;46.156;18.614;2023-06-22T00:16:32;99329.00;;;22.41;82.88
80922;BME280;70374;46.156;18.614;2023-06-22T00:19:35;99333.81;;;22.33;83.10
80922;BME280;70374;46.156;18.614;2023-06-22T00:22:38;99335.06;;;22.24;83.43
80922;BME280;70374;46.156;18.614;2023-06-22T00:25:41;99326.16;;;22.20;84.08
80922;BME280;70374;46.156;18.614;2023-06-22T00:28:43;99325.66;;;22.09;84.86
80922;BME280;70374;46.156;18.614;2023-06-22T00:31:46;99339.13;;;22.03;85.26
80922;BME280;70374;46.156;18.614;2023-06-22T00:34:49;99345.41;;;22.22;84.40
80922;BME280;70374;46.156;18.614;2023-06-22T00:37:52;99342.62;;;22.43;83.73
80922;BME280;70374;46.156;18.614;2023-06-22T00:41:02;99335.34;;;22.34;83.65
80922;BME280;70374;46.156;18.614;2023-06-22T00:44:05;99347.72;;;22.10;85.15
80922;BME280;70374;46.156;18.614;2023-06-22T00:47:09;99352.44;;;21.95;85.52
80922;BME280;70374;46.156;18.614;2023-06-22T00:50:15;99353.28;;;21.90;85.61
80922;BME280;70374;46.156;18.614;2023-06-22T00:53:20;99356.97;;;21.85;85.65
80922;BME280;70374;46.156;18.614;2023-06-22T00:56:23;99371.13;;;21.98;85.09
80922;BME280;70374;46.156;18.614;2023-06-22T00:59:27;99367.94;;;22.14;84.71
80922;BME280;70374;46.156;18.614;2023-06-22T01:02:29;99366.97;;;22.12;84.67
80922;BME280;70374;46.156;18.614;2023-06-22T01:05:32;99379.69;;;22.05;84.87
80922;BME280;70374;46.156;18.614;2023-06-22T01:09:06;99388.94;;;21.93;85.45
80922;BME280;70374;46.156;18.614;2023-06-22T01:12:13;99395.62;;;22.29;84.37
80922;BME280;70374;46.156;18.614;2023-06-22T01:15:34;99391.91;;;22.34;84.42
80922;BME280;70374;46.156;18.614;2023-06-22T01:18:42;99396.16;;;22.28;84.41
80922;BME280;70374;46.156;18.614;2023-06-22T01:21:45;99400.34;;;22.47;82.87
80922;BME280;70374;46.156;18.614;2023-06-22T01:31:22;99415.16;;;22.87;80.10
80922;BME280;70374;46.156;18.614;2023-06-22T01:34:25;99417.81;;;22.72;80.53
80922;BME280;70374;46.156;18.614;2023-06-22T01:37:30;99427.09;;;22.59;81.63
80922;BME280;70374;46.156;18.614;2023-06-22T01:40:34;99428.47;;;22.32;82.95
80922;BME280;70374;46.156;18.614;2023-06-22T01:43:39;99443.19;;;22.17;84.31
80922;BME280;70374;46.156;18.614;2023-06-22T01:46:42;99438.53;;;21.94;85.97
80922;BME280;70374;46.156;18.614;2023-06-22T01:49:45;99445.88;;;21.84;86.66
80922;BME280;70374;46.156;18.614;2023-06-22T01:52:48;99450.78;;;21.70;87.54
80922;BME280;70374;46.156;18.614;2023-06-22T01:55:51;99439.13;;;21.60;88.32
80922;BME280;70374;46.156;18.614;2023-06-22T01:59:07;99438.75;;;21.38;89.33
80922;BME280;70374;46.156;18.614;2023-06-22T02:02:15;99434.75;;;21.33;89.74
80922;BME280;70374;46.156;18.614;2023-06-22T02:05:20;99431.03;;;21.25;90.46
80922;BME280;70374;46.156;18.614;2023-06-22T02:08:28;99432.75;;;21.15;91.22
80922;BME280;70374;46.156;18.614;2023-06-22T02:11:35;99420.06;;;21.21;90.89
80922;BME280;70374;46.156;18.614;2023-06-22T02:14:38;99431.28;;;21.08;91.87
80922;BME280;70374;46.156;18.614;2023-06-22T02:17:42;99431.56;;;21.23;90.88
80922;BME280;70374;46.156;18.614;2023-06-22T02:20:47;99428.63;;;21.16;91.38
80922;BME280;70374;46.156;18.614;2023-06-22T02:23:50;99433.81;;;21.12;92.05
80922;BME280;70374;46.156;18.614;2023-06-22T02:26:53;99432.94;;;21.17;92.59
80922;BME280;70374;46.156;18.614;2023-06-22T02:29:55;99432.69;;;21.02;93.22
80922;BME280;70374;46.156;18.614;2023-06-22T02:32:58;99425.06;;;20.97;93.61
80922;BME280;70374;46.156;18.614;2023-06-22T02:36:01;99428.22;;;20.74;94.07
80922;BME280;70374;46.156;18.614;2023-06-22T02:39:07;99431.56;;;20.73;94.52
80922;BME280;70374;46.156;18.614;2023-06-22T02:42:11;99442.16;;;20.86;94.23
80922;BME280;70374;46.156;18.614;2023-06-22T02:45:14;99428.38;;;20.82;94.12
80922;BME280;70374;46.156;18.614;2023-06-22T02:48:17;99431.56;;;20.92;94.24
80922;BME280;70374;46.156;18.614;2023-06-22T02:51:20;99424.66;;;21.06;93.07
80922;BME280;70374;46.156;18.614;2023-06-22T02:54:22;99435.47;;;21.20;92.36
80922;BME280;70374;46.156;18.614;2023-06-22T02:57:26;99423.72;;;21.16;92.47
80922;BME280;70374;46.156;18.614;2023-06-22T03:00:28;99435.56;;;21.15;92.36
80922;BME280;70374;46.156;18.614;2023-06-22T03:03:33;99444.34;;;20.93;93.16
80922;BME280;70374;46.156;18.614;2023-06-22T03:06:36;99452.44;;;20.83;93.75
80922;BME280;70374;46.156;18.614;2023-06-22T03:09:38;99454.06;;;20.79;94.04
80922;BME280;70374;46.156;18.614;2023-06-22T03:12:42;99456.34;;;20.80;93.66
80922;BME280;70374;46.156;18.614;2023-06-22T03:15:45;99463.84;;;20.78;93.51
80922;BME280;70374;46.156;18.614;2023-06-22T03:18:48;99464.66;;;20.72;93.46
80922;BME280;70374;46.156;18.614;2023-06-22T03:21:51;99475.63;;;20.76;93.26
80922;BME280;70374;46.156;18.614;2023-06-22T03:24:54;99470.31;;;20.72;93.23
80922;BME280;70374;46.156;18.614;2023-06-22T03:27:56;99472.91;;;20.70;93.37
80922;BME280;70374;46.156;18.614;2023-06-22T03:31:00;99473.59;;;20.77;92.82
80922;BME280;70374;46.156;18.614;2023-06-22T03:34:04;99469.38;;;20.83;92.38
80922;BME280;70374;46.156;18.614;2023-06-22T03:37:07;99479.75;;;20.94;91.80
80922;BME280;70374;46.156;18.614;2023-06-22T03:40:10;99474.34;;;20.96;91.53
80922;BME280;70374;46.156;18.614;2023-06-22T03:43:13;99480.19;;;20.98;91.45
80922;BME280;70374;46.156;18.614;2023-06-22T03:46:15;99471.94;;;21.00;91.16
80922;BME280;70374;46.156;18.614;2023-06-22T03:49:18;99474.25;;;21.01;90.97
80922;BME280;70374;46.156;18.614;2023-06-22T03:52:23;99474.91;;;21.07;90.58
80922;BME280;70374;46.156;18.614;2023-06-22T03:55:27;99470.41;;;21.17;89.99
80922;BME280;70374;46.156;18.614;2023-06-22T03:58:30;99469.78;;;21.24;89.77
80922;BME280;70374;46.156;18.614;2023-06-22T04:01:35;99462.22;;;21.33;89.14
80922;BME280;70374;46.156;18.614;2023-06-22T04:04:38;99460.50;;;21.43;87.81
80922;BME280;70374;46.156;18.614;2023-06-22T04:07:41;99467.56;;;21.49;87.86
80922;BME280;70374;46.156;18.614;2023-06-22T04:10:44;99461.06;;;21.54;87.53
80922;BME280;70374;46.156;18.614;2023-06-22T04:13:47;99466.31;;;21.63;87.13
80922;BME280;70374;46.156;18.614;2023-06-22T04:16:51;99462.59;;;21.68;86.76
80922;BME280;70374;46.156;18.614;2023-06-22T04:19:53;99464.56;;;21.73;86.38
80922;BME280;70374;46.156;18.614;2023-06-22T04:22:56;99469.47;;;21.73;85.99
80922;BME280;70374;46.156;18.614;2023-06-22T04:25:59;99478.06;;;21.81;85.92
80922;BME280;70374;46.156;18.614;2023-06-22T04:42:12;99483.59;;;22.99;80.74
80922;BME280;70374;46.156;18.614;2023-06-22T04:45:15;99483.59;;;22.99;80.74
80922;BME280;70374;46.156;18.614;2023-06-22T04:48:17;99484.59;;;22.41;82.14
80922;BME280;70374;46.156;18.614;2023-06-22T04:51:20;99484.47;;;22.47;82.01
80922;BME280;70374;46.156;18.614;2023-06-22T04:54:23;99483.25;;;22.55;81.71
80922;BME280;70374;46.156;18.614;2023-06-22T04:57:26;99476.50;;;22.58;81.72
80922;BME280;70374;46.156;18.614;2023-06-22T05:00:34;99482.16;;;22.58;81.39
80922;BME280;70374;46.156;18.614;2023-06-22T05:03:38;99476.81;;;22.68;81.19
80922;BME280;70374;46.156;18.614;2023-06-22T05:06:43;99487.12;;;22.79;80.79
80922;BME280;70374;46.156;18.614;2023-06-22T05:09:48;99481.44;;;22.92;80.33
80922;BME280;70374;46.156;18.614;2023-06-22T05:12:50;99485.44;;;22.96;79.95
80922;BME280;70374;46.156;18.614;2023-06-22T05:15:53;99495.00;;;23.06;79.49
80922;BME280;70374;46.156;18.614;2023-06-22T05:19:04;99492.09;;;23.19;78.93
80922;BME280;70374;46.156;18.614;2023-06-22T05:22:07;99491.84;;;23.31;78.70
80922;BME280;70374;46.156;18.614;2023-06-22T05:25:10;99491.03;;;23.43;78.54
80922;BME280;70374;46.156;18.614;2023-06-22T05:28:13;99491.88;;;23.51;78.13
80922;BME280;70374;46.156;18.614;2023-06-22T05:31:16;99501.31;;;23.54;77.88
80922;BME280;70374;46.156;18.614;2023-06-22T05:34:19;99494.41;;;23.62;77.67
80922;BME280;70374;46.156;18.614;2023-06-22T05:37:22;99504.13;;;23.74;77.05
80922;BME280;70374;46.156;18.614;2023-06-22T05:40:24;99509.59;;;24.01;76.00
80922;BME280;70374;46.156;18.614;2023-06-22T05:43:27;99504.75;;;24.09;75.63
80922;BME280;70374;46.156;18.614;2023-06-22T05:46:30;99504.31;;;24.26;75.23
80922;BME280;70374;46.156;18.614;2023-06-22T05:49:33;99513.81;;;24.36;74.75
80922;BME280;70374;46.156;18.614;2023-06-22T05:52:35;99511.97;;;24.46;74.85
80922;BME280;70374;46.156;18.614;2023-06-22T05:55:38;99512.44;;;24.57;74.47
80922;BME280;70374;46.156;18.614;2023-06-22T05:58:41;99512.81;;;24.61;74.35
80922;BME280;70374;46.156;18.614;2023-06-22T06:01:43;99508.53;;;24.76;74.00
80922;BME280;70374;46.156;18.614;2023-06-22T06:04:46;99506.03;;;24.64;74.03
80922;BME280;70374;46.156;18.614;2023-06-22T06:07:49;99508.56;;;24.83;73.44
80922;BME280;70374;46.156;18.614;2023-06-22T06:10:51;99507.69;;;24.96;73.23
80922;BME280;70374;46.156;18.614;2023-06-22T06:13:55;99512.19;;;24.91;73.61
80922;BME280;70374;46.156;18.614;2023-06-22T06:16:58;99512.31;;;25.44;71.98
80922;BME280;70374;46.156;18.614;2023-06-22T06:20:01;99507.03;;;25.86;70.06
80922;BME280;70374;46.156;18.614;2023-06-22T06:23:03;99511.94;;;26.01;69.96
80922;BME280;70374;46.156;18.614;2023-06-22T06:26:06;99510.78;;;26.11;69.65
80922;BME280;70374;46.156;18.614;2023-06-22T06:29:09;99512.50;;;26.14;69.55
80922;BME280;70374;46.156;18.614;2023-06-22T06:32:11;99506.06;;;26.21;69.15
80922;BME280;70374;46.156;18.614;2023-06-22T06:35:15;99506.97;;;26.32;68.92
80922;BME280;70374;46.156;18.614;2023-06-22T06:38:18;99507.97;;;26.19;69.50
80922;BME280;70374;46.156;18.614;2023-06-22T06:41:21;99503.38;;;26.31;69.04
80922;BME280;70374;46.156;18.614;2023-06-22T06:44:23;99504.75;;;26.23;69.31
80922;BME280;70374;46.156;18.614;2023-06-22T06:47:26;99500.13;;;26.42;68.48
80922;BME280;70374;46.156;18.614;2023-06-22T06:50:29;99494.94;;;26.56;68.07
80922;BME280;70374;46.156;18.614;2023-06-22T06:53:31;99506.09;;;26.69;67.85
80922;BME280;70374;46.156;18.614;2023-06-22T06:56:34;99502.72;;;26.55;68.30
80922;BME280;70374;46.156;18.614;2023-06-22T06:59:37;99502.44;;;26.84;67.51
80922;BME280;70374;46.156;18.614;2023-06-22T07:02:40;99496.44;;;27.04;67.04
80922;BME280;70374;46.156;18.614;2023-06-22T07:05:43;99493.41;;;27.02;67.28
80922;BME280;70374;46.156;18.614;2023-06-22T07:08:46;99501.56;;;27.06;67.35
80922;BME280;70374;46.156;18.614;2023-06-22T07:11:48;99499.25;;;27.12;67.47
80922;BME280;70374;46.156;18.614;2023-06-22T07:14:57;99495.53;;;27.27;67.22
80922;BME280;70374;46.156;18.614;2023-06-22T07:18:03;99482.72;;;27.10;67.53
80922;BME280;70374;46.156;18.614;2023-06-22T07:21:05;99490.44;;;27.25;67.19
80922;BME280;70374;46.156;18.614;2023-06-22T07:24:09;99481.69;;;27.23;67.21
80922;BME280;70374;46.156;18.614;2023-06-22T07:27:11;99475.84;;;27.46;67.01
80922;BME280;70374;46.156;18.614;2023-06-22T07:30:14;99475.09;;;27.45;66.72
80922;BME280;70374;46.156;18.614;2023-06-22T07:33:17;99471.44;;;27.52;66.36
80922;BME280;70374;46.156;18.614;2023-06-22T07:36:20;99473.91;;;27.73;65.82
80922;BME280;70374;46.156;18.614;2023-06-22T07:39:22;99483.13;;;27.81;65.71
80922;BME280;70374;46.156;18.614;2023-06-22T07:42:28;99487.56;;;27.75;65.86
80922;BME280;70374;46.156;18.614;2023-06-22T07:45:32;99480.59;;;27.68;66.91
80922;BME280;70374;46.156;18.614;2023-06-22T07:48:37;99491.56;;;27.96;65.53
80922;BME280;70374;46.156;18.614;2023-06-22T07:51:40;99480.84;;;28.04;65.71
80922;BME280;70374;46.156;18.614;2023-06-22T07:54:43;99473.59;;;27.86;65.81
80922;BME280;70374;46.156;18.614;2023-06-22T07:57:48;99486.09;;;27.74;65.77
80922;BME280;70374;46.156;18.614;2023-06-22T08:00:51;99491.47;;;28.11;65.06
80922;BME280;70374;46.156;18.614;2023-06-22T08:03:54;99490.34;;;28.07;64.95
80922;BME280;70374;46.156;18.614;2023-06-22T08:06:57;99485.34;;;28.15;64.83
80922;BME280;70374;46.156;18.614;2023-06-22T08:10:00;99481.84;;;27.99;65.59
80922;BME280;70374;46.156;18.614;2023-06-22T08:13:02;99490.19;;;28.22;65.39
80922;BME280;70374;46.156;18.614;2023-06-22T08:16:05;99490.78;;;28.38;64.64
80922;BME280;70374;46.156;18.614;2023-06-22T08:19:09;99492.31;;;28.39;64.53
80922;BME280;70374;46.156;18.614;2023-06-22T08:22:11;99497.75;;;28.27;64.87
80922;BME280;70374;46.156;18.614;2023-06-22T08:25:15;99493.22;;;28.41;64.75
80922;BME280;70374;46.156;18.614;2023-06-22T08:28:18;99488.06;;;28.40;64.65
80922;BME280;70374;46.156;18.614;2023-06-22T08:31:20;99487.31;;;28.56;64.75
80922;BME280;70374;46.156;18.614;2023-06-22T08:34:23;99486.16;;;28.77;63.73
80922;BME280;70374;46.156;18.614;2023-06-22T08:37:29;99486.88;;;28.60;64.02
80922;BME280;70374;46.156;18.614;2023-06-22T08:40:37;99492.78;;;28.79;63.70
80922;BME280;70374;46.156;18.614;2023-06-22T08:43:40;99488.50;;;28.70;63.79
80922;BME280;70374;46.156;18.614;2023-06-22T08:46:42;99491.81;;;28.94;63.10
80922;BME280;70374;46.156;18.614;2023-06-22T08:49:45;99483.53;;;28.54;63.92
80922;BME280;70374;46.156;18.614;2023-06-22T08:52:48;99488.59;;;28.63;64.92
80922;BME280;70374;46.156;18.614;2023-06-22T08:55:50;99480.22;;;28.92;63.43
80922;BME280;70374;46.156;18.614;2023-06-22T08:58:53;99476.63;;;29.01;63.29
80922;BME280;70374;46.156;18.614;2023-06-22T09:01:56;99479.25;;;29.33;62.45
80922;BME280;70374;46.156;18.614;2023-06-22T09:05:03;99473.91;;;29.20;62.47
80922;BME280;70374;46.156;18.614;2023-06-22T09:08:05;99475.03;;;29.34;62.42
80922;BME280;70374;46.156;18.614;2023-06-22T09:11:08;99468.31;;;29.22;62.21
80922;BME280;70374;46.156;18.614;2023-06-22T09:14:11;99465.50;;;29.58;62.42
80922;BME280;70374;46.156;18.614;2023-06-22T09:17:14;99470.13;;;29.44;63.49
80922;BME280;70374;46.156;18.614;2023-06-22T09:20:17;99467.84;;;29.43;61.47
80922;BME280;70374;46.156;18.614;2023-06-22T09:23:20;99464.88;;;29.50;61.44
80922;BME280;70374;46.156;18.614;2023-06-22T09:26:22;99455.94;;;29.37;62.04
80922;BME280;70374;46.156;18.614;2023-06-22T09:29:26;99452.94;;;29.35;62.06
80922;BME280;70374;46.156;18.614;2023-06-22T09:32:28;99460.91;;;29.36;62.09
80922;BME280;70374;46.156;18.614;2023-06-22T09:35:31;99444.09;;;29.59;62.59
80922;BME280;70374;46.156;18.614;2023-06-22T09:38:37;99447.38;;;29.46;62.02
80922;BME280;70374;46.156;18.614;2023-06-22T09:41:40;99444.69;;;29.21;62.31
80922;BME280;70374;46.156;18.614;2023-06-22T09:44:42;99448.56;;;29.43;62.65
80922;BME280;70374;46.156;18.614;2023-06-22T09:47:45;99451.59;;;29.91;60.55
80922;BME280;70374;46.156;18.614;2023-06-22T09:50:48;99447.81;;;29.89;60.67
80922;BME280;70374;46.156;18.614;2023-06-22T09:53:51;99446.00;;;29.84;60.81
80922;BME280;70374;46.156;18.614;2023-06-22T09:56:56;99440.44;;;29.86;60.92
80922;BME280;70374;46.156;18.614;2023-06-22T09:59:58;99440.34;;;29.57;61.49
80922;BME280;70374;46.156;18.614;2023-06-22T10:03:01;99436.72;;;29.56;61.08
80922;BME280;70374;46.156;18.614;2023-06-22T10:06:04;99445.63;;;29.60;61.03
80922;BME280;70374;46.156;18.614;2023-06-22T10:09:07;99443.06;;;29.55;61.40
80922;BME280;70374;46.156;18.614;2023-06-22T10:12:10;99444.66;;;29.85;59.62
80922;BME280;70374;46.156;18.614;2023-06-22T10:15:13;99432.91;;;30.29;59.02
80922;BME280;70374;46.156;18.614;2023-06-22T10:18:18;99442.19;;;29.81;60.26
80922;BME280;70374;46.156;18.614;2023-06-22T10:21:20;99442.53;;;29.39;61.49
80922;BME280;70374;46.156;18.614;2023-06-22T10:24:23;99433.50;;;30.08;59.88
80922;BME280;70374;46.156;18.614;2023-06-22T10:27:25;99435.47;;;29.96;60.33
80922;BME280;70374;46.156;18.614;2023-06-22T10:30:28;99432.75;;;30.07;60.45
80922;BME280;70374;46.156;18.614;2023-06-22T10:33:31;99435.63;;;30.27;59.52
80922;BME280;70374;46.156;18.614;2023-06-22T10:36:34;99438.22;;;30.51;59.12
80922;BME280;70374;46.156;18.614;2023-06-22T10:39:36;99436.22;;;30.25;59.48
80922;BME280;70374;46.156;18.614;2023-06-22T10:42:39;99438.47;;;29.98;60.12
80922;BME280;70374;46.156;18.614;2023-06-22T10:45:41;99421.16;;;30.53;58.87
80922;BME280;70374;46.156;18.614;2023-06-22T10:48:44;99428.03;;;30.79;57.48
80922;BME280;70374;46.156;18.614;2023-06-22T10:51:47;99438.47;;;30.75;57.78
80922;BME280;70374;46.156;18.614;2023-06-22T10:54:49;99433.50;;;30.08;59.57
80922;BME280;70374;46.156;18.614;2023-06-22T10:57:52;99433.59;;;30.96;56.71
80922;BME280;70374;46.156;18.614;2023-06-22T11:00:55;99428.03;;;30.89;57.18
80922;BME280;70374;46.156;18.614;2023-06-22T11:03:57;99424.09;;;30.84;56.16
80922;BME280;70374;46.156;18.614;2023-06-22T11:07:00;99423.25;;;31.22;55.82
80922;BME280;70374;46.156;18.614;2023-06-22T11:10:03;99422.19;;;30.67;57.01
80922;BME280;70374;46.156;18.614;2023-06-22T11:13:05;99431.84;;;30.62;57.51
80922;BME280;70374;46.156;18.614;2023-06-22T11:16:11;99422.81;;;31.16;54.99
80922;BME280;70374;46.156;18.614;2023-06-22T11:19:14;99415.94;;;31.61;55.02
80922;BME280;70374;46.156;18.614;2023-06-22T11:22:17;99426.22;;;31.86;54.77
80922;BME280;70374;46.156;18.614;2023-06-22T11:25:20;99412.69;;;32.19;53.31
80922;BME280;70374;46.156;18.614;2023-06-22T11:28:22;99407.16;;;32.44;52.99
80922;BME280;70374;46.156;18.614;2023-06-22T11:31:25;99405.63;;;31.37;54.47
80922;BME280;70374;46.156;18.614;2023-06-22T11:34:28;99413.75;;;31.10;55.88
80922;BME280;70374;46.156;18.614;2023-06-22T11:37:30;99412.69;;;30.65;57.80
80922;BME280;70374;46.156;18.614;2023-06-22T11:40:33;99417.22;;;31.18;56.37
80922;BME280;70374;46.156;18.614;2023-06-22T11:43:36;99418.78;;;30.90;56.97
80922;BME280;70374;46.156;18.614;2023-06-22T11:46:39;99407.06;;;31.57;55.56
80922;BME280;70374;46.156;18.614;2023-06-22T11:49:42;99407.06;;;31.79;53.46
80922;BME280;70374;46.156;18.614;2023-06-22T11:52:44;99407.69;;;31.98;53.18
80922;BME280;70374;46.156;18.614;2023-06-22T11:55:47;99399.97;;;31.80;52.79
80922;BME280;70374;46.156;18.614;2023-06-22T11:58:51;99403.41;;;32.09;51.68
80922;BME280;70374;46.156;18.614;2023-06-22T12:01:54;99403.94;;;32.17;51.54
80922;BME280;70374;46.156;18.614;2023-06-22T12:04:56;99399.28;;;32.45;50.94
80922;BME280;70374;46.156;18.614;2023-06-22T12:08:00;99403.34;;;32.30;50.27
80922;BME280;70374;46.156;18.614;2023-06-22T12:11:03;99392.03;;;32.11;50.31
80922;BME280;70374;46.156;18.614;2023-06-22T12:14:05;99393.50;;;32.66;49.45
80922;BME280;70374;46.156;18.614;2023-06-22T12:17:08;99389.44;;;33.27;48.08
80922;BME280;70374;46.156;18.614;2023-06-22T12:20:11;99384.25;;;33.60;48.19
80922;BME280;70374;46.156;18.614;2023-06-22T12:23:14;99387.19;;;33.26;48.32
80922;BME280;70374;46.156;18.614;2023-06-22T12:26:17;99385.84;;;33.15;49.72
80922;BME280;70374;46.156;18.614;2023-06-22T12:29:19;99381.81;;;33.20;49.40
80922;BME280;70374;46.156;18.614;2023-06-22T12:32:22;99379.91;;;32.90;50.49
80922;BME280;70374;46.156;18.614;2023-06-22T12:35:25;99376.91;;;32.88;50.50
80922;BME280;70374;46.156;18.614;2023-06-22T12:38:27;99383.78;;;32.83;50.06
80922;BME280;70374;46.156;18.614;2023-06-22T12:41:30;99369.63;;;32.63;49.66
80922;BME280;70374;46.156;18.614;2023-06-22T12:44:32;99361.63;;;32.74;49.65
80922;BME280;70374;46.156;18.614;2023-06-22T12:47:35;99363.69;;;33.18;48.76
80922;BME280;70374;46.156;18.614;2023-06-22T12:50:38;99363.94;;;33.10;49.34
80922;BME280;70374;46.156;18.614;2023-06-22T12:53:40;99355.16;;;33.31;48.44
80922;BME280;70374;46.156;18.614;2023-06-22T12:56:43;99360.41;;;33.35;48.38
80922;BME280;70374;46.156;18.614;2023-06-22T12:59:47;99346.63;;;33.33;49.68
80922;BME280;70374;46.156;18.614;2023-06-22T13:02:50;99357.38;;;32.86;50.96
80922;BME280;70374;46.156;18.614;2023-06-22T13:05:53;99352.25;;;32.85;49.99
80922;BME280;70374;46.156;18.614;2023-06-22T13:08:56;99347.13;;;33.06;49.05
80922;BME280;70374;46.156;18.614;2023-06-22T13:12:22;99337.91;;;33.08;48.99
80922;BME280;70374;46.156;18.614;2023-06-22T13:15:24;99338.41;;;33.28;46.36
80922;BME280;70374;46.156;18.614;2023-06-22T13:18:27;99328.50;;;33.19;46.21
80922;BME280;70374;46.156;18.614;2023-06-22T13:21:30;99328.44;;;33.54;44.58
80922;BME280;70374;46.156;18.614;2023-06-22T13:24:33;99327.69;;;33.77;44.10
80922;BME280;70374;46.156;18.614;2023-06-22T13:27:35;99326.53;;;33.22;45.78
80922;BME280;70374;46.156;18.614;2023-06-22T13:30:38;99332.59;;;33.62;44.10
80922;BME280;70374;46.156;18.614;2023-06-22T13:33:40;99319.44;;;33.96;43.46
80922;BME280;70374;46.156;18.614;2023-06-22T13:36:43;99325.91;;;33.60;42.12
80922;BME280;70374;46.156;18.614;2023-06-22T13:39:45;99317.91;;;34.07;42.15
80922;BME280;70374;46.156;18.614;2023-06-22T13:42:48;99317.09;;;34.18;42.14
80922;BME280;70374;46.156;18.614;2023-06-22T13:45:51;99322.44;;;34.49;42.05
80922;BME280;70374;46.156;18.614;2023-06-22T13:48:54;99315.91;;;34.87;41.66
80922;BME280;70374;46.156;18.614;2023-06-22T13:51:57;99311.56;;;35.00;40.92
80922;BME280;70374;46.156;18.614;2023-06-22T13:55:00;99305.88;;;35.02;39.78
80922;BME280;70374;46.156;18.614;2023-06-22T13:58:03;99308.53;;;34.84;39.83
80922;BME280;70374;46.156;18.614;2023-06-22T14:01:06;99301.91;;;34.68;40.14
80922;BME280;70374;46.156;18.614;2023-06-22T14:04:09;99299.22;;;34.33;40.00
80922;BME280;70374;46.156;18.614;2023-06-22T14:07:12;99295.62;;;34.46;40.33
80922;BME280;70374;46.156;18.614;2023-06-22T14:10:18;99287.63;;;34.45;39.73
80922;BME280;70374;46.156;18.614;2023-06-22T14:13:20;99286.19;;;34.32;40.60
80922;BME280;70374;46.156;18.614;2023-06-22T14:16:23;99286.56;;;34.52;40.61
80922;BME280;70374;46.156;18.614;2023-06-22T14:19:25;99284.37;;;34.78;40.43
80922;BME280;70374;46.156;18.614;2023-06-22T14:22:28;99289.19;;;34.87;40.26
80922;BME280;70374;46.156;18.614;2023-06-22T14:25:31;99282.16;;;35.03;39.49
80922;BME280;70374;46.156;18.614;2023-06-22T14:28:34;99285.41;;;35.52;38.24
80922;BME280;70374;46.156;18.614;2023-06-22T14:31:36;99275.91;;;35.93;37.35
80922;BME280;70374;46.156;18.614;2023-06-22T14:34:39;99275.72;;;38.14;32.95
80922;BME280;70374;46.156;18.614;2023-06-22T14:37:42;99275.22;;;39.56;29.88
80922;BME280;70374;46.156;18.614;2023-06-22T14:40:45;99275.75;;;41.12;28.48
80922;BME280;70374;46.156;18.614;2023-06-22T14:43:54;99266.22;;;41.93;26.89
80922;BME280;70374;46.156;18.614;2023-06-22T14:46:57;99267.88;;;42.32;26.31
80922;BME280;70374;46.156;18.614;2023-06-22T14:50:00;99258.09;;;42.19;26.43
80922;BME280;70374;46.156;18.614;2023-06-22T14:53:02;99253.37;;;43.04;25.48
80922;BME280;70374;46.156;18.614;2023-06-22T14:56:05;99259.72;;;43.74;24.63
80922;BME280;70374;46.156;18.614;2023-06-22T14:59:09;99256.56;;;44.54;23.64
80922;BME280;70374;46.156;18.614;2023-06-22T15:02:11;99253.53;;;43.52;24.47
80922;BME280;70374;46.156;18.614;2023-06-22T15:05:14;99250.91;;;44.16;23.65
80922;BME280;70374;46.156;18.614;2023-06-22T15:08:16;99254.94;;;43.49;24.40
80922;BME280;70374;46.156;18.614;2023-06-22T15:11:19;99251.06;;;44.26;23.10
80922;BME280;70374;46.156;18.614;2023-06-22T15:14:22;99247.50;;;43.83;23.58
80922;BME280;70374;46.156;18.614;2023-06-22T15:17:25;99241.13;;;42.12;25.92
80922;BME280;70374;46.156;18.614;2023-06-22T15:20:31;99235.03;;;41.72;26.55
80922;BME280;70374;46.156;18.614;2023-06-22T15:23:34;99238.37;;;43.63;23.90
80922;BME280;70374;46.156;18.614;2023-06-22T15:26:36;99229.19;;;44.31;23.27
80922;BME280;70374;46.156;18.614;2023-06-22T15:29:40;99231.97;;;44.75;22.64
80922;BME280;70374;46.156;18.614;2023-06-22T15:32:43;99230.91;;;45.10;21.84
80922;BME280;70374;46.156;18.614;2023-06-22T15:35:47;99232.13;;;44.91;22.12
80922;BME280;70374;46.156;18.614;2023-06-22T15:38:49;99224.13;;;45.68;21.58
80922;BME280;70374;46.156;18.614;2023-06-22T15:41:53;99225.16;;;45.22;21.95
80922;BME280;70374;46.156;18.614;2023-06-22T15:44:59;99224.66;;;44.78;22.55
80922;BME280;70374;46.156;18.614;2023-06-22T15:48:02;99224.44;;;44.58;22.46
80922;BME280;70374;46.156;18.614;2023-06-22T15:51:05;99222.87;;;44.01;23.21
80922;BME280;70374;46.156;18.614;2023-06-22T15:54:08;99217.34;;;43.75;23.38
80922;BME280;70374;46.156;18.614;2023-06-22T15:57:10;99215.03;;;43.25;23.96
80922;BME280;70374;46.156;18.614;2023-06-22T16:00:17;99219.44;;;41.89;25.57
80922;BME280;70374;46.156;18.614;2023-06-22T16:03:20;99214.56;;;42.29;25.20
80922;BME280;70374;46.156;18.614;2023-06-22T16:06:22;99214.00;;;41.45;26.57
80922;BME280;70374;46.156;18.614;2023-06-22T16:09:26;99208.78;;;41.14;27.16
80922;BME280;70374;46.156;18.614;2023-06-22T16:12:29;99201.41;;;40.58;28.10
80922;BME280;70374;46.156;18.614;2023-06-22T16:15:32;99200.59;;;40.31;28.18
80922;BME280;70374;46.156;18.614;2023-06-22T16:18:34;99200.81;;;39.05;30.05